sensor_id;sensor_type;location;lat;lon;timestamp;P1;durP1;ratioP1;P2;durP2;ratioP2
67065;SDS011;53978;43.846;25.952;2023-04-29T00:53:43;4.10;;;3.30;;
67065;SDS011;53978;43.846;25.952;2023-04-29T00:56:14;6.93;;;4.68;;
67065;SDS011;53978;43.846;25.952;2023-04-29T00:58:44;10.05;;;6.57;;
67065;SDS011;53978;43.846;25.952;2023-04-29T01:01:14;15.23;;;8.60;;
67065;SDS011;53978;43.846;25.952;2023-04-29T01:03:40;15.27;;;8.48;;
67065;SDS011;53978;43.846;25.952;2023-04-29T01:11:52;12.48;;;7.03;;
67065;SDS011;53978;43.846;25.952;2023-04-29T01:14:25;9.68;;;6.32;;
67065;SDS011;53978;43.846;25.952;2023-04-29T01:16:51;11.25;;;7.32;;
67065;SDS011;53978;43.846;25.952;2023-04-29T01:22:12;6.82;;;4.43;;
67065;SDS011;53978;43.846;25.952;2023-04-29T01:24:45;9.45;;;4.47;;
67065;SDS011;53978;43.846;25.952;2023-04-29T01:32:39;5.95;;;4.22;;
67065;SDS011;53978;43.846;25.952;2023-04-29T01:35:10;6.70;;;3.97;;
67065;SDS011;53978;43.846;25.952;2023-04-29T01:38:00;5.10;;;3.65;;
67065;SDS011;53978;43.846;25.952;2023-04-29T01:40:47;12.05;;;3.60;;
67065;SDS011;53978;43.846;25.952;2023-04-29T01:43:21;5.35;;;3.53;;
67065;SDS011;53978;43.846;25.952;2023-04-29T01:45:48;6.07;;;3.90;;
67065;SDS011;53978;43.846;25.952;2023-04-29T01:48:15;5.32;;;3.60;;
67065;SDS011;53978;43.846;25.952;2023-04-29T01:50:41;4.40;;;3.40;;
67065;SDS011;53978;43.846;25.952;2023-04-29T01:53:07;6.18;;;3.55;;
67065;SDS011;53978;43.846;25.952;2023-04-29T01:55:35;6.45;;;3.78;;
67065;SDS011;53978;43.846;25.952;2023-04-29T01:58:01;6.28;;;3.58;;
67065;SDS011;53978;43.846;25.952;2023-04-29T02:00:26;4.10;;;3.33;;
67065;SDS011;53978;43.846;25.952;2023-04-29T02:02:51;4.68;;;3.53;;
67065;SDS011;53978;43.846;25.952;2023-04-29T02:05:18;4.43;;;3.67;;
67065;SDS011;53978;43.846;25.952;2023-04-29T02:07:44;5.28;;;3.42;;
67065;SDS011;53978;43.846;25.952;2023-04-29T02:10:09;8.90;;;3.25;;
67065;SDS011;53978;43.846;25.952;2023-04-29T02:12:37;7.43;;;3.60;;
67065;SDS011;53978;43.846;25.952;2023-04-29T02:15:03;5.60;;;3.53;;
67065;SDS011;53978;43.846;25.952;2023-04-29T02:17:29;5.85;;;3.60;;
67065;SDS011;53978;43.846;25.952;2023-04-29T02:19:54;4.88;;;3.83;;
67065;SDS011;53978;43.846;25.952;2023-04-29T02:22:20;8.90;;;3.97;;
67065;SDS011;53978;43.846;25.952;2023-04-29T02:24:46;7.05;;;3.75;;
67065;SDS011;53978;43.846;25.952;2023-04-29T02:27:11;5.30;;;3.55;;
67065;SDS011;53978;43.846;25.952;2023-04-29T02:29:37;5.28;;;3.80;;
67065;SDS011;53978;43.846;25.952;2023-04-29T02:32:02;7.72;;;3.67;;
67065;SDS011;53978;43.846;25.952;2023-04-29T02:34:28;5.95;;;3.83;;
67065;SDS011;53978;43.846;25.952;2023-04-29T02:36:53;5.75;;;4.13;;
67065;SDS011;53978;43.846;25.952;2023-04-29T02:39:19;8.45;;;4.35;;
67065;SDS011;53978;43.846;25.952;2023-04-29T02:41:44;5.13;;;3.95;;
67065;SDS011;53978;43.846;25.952;2023-04-29T02:44:10;5.57;;;3.92;;
67065;SDS011;53978;43.846;25.952;2023-04-29T03:06:11;3.47;;;2.55;;
67065;SDS011;53978;43.846;25.952;2023-04-29T03:11:08;4.80;;;2.80;;
67065;SDS011;53978;43.846;25.952;2023-04-29T03:13:33;3.67;;;2.58;;
67065;SDS011;53978;43.846;25.952;2023-04-29T03:15:58;4.57;;;2.60;;
67065;SDS011;53978;43.846;25.952;2023-04-29T03:18:25;4.97;;;2.97;;
67065;SDS011;53978;43.846;25.952;2023-04-29T03:20:52;4.10;;;2.72;;
67065;SDS011;53978;43.846;25.952;2023-04-29T03:23:18;5.38;;;2.75;;
67065;SDS011;53978;43.846;25.952;2023-04-29T03:25:43;4.60;;;2.70;;
67065;SDS011;53978;43.846;25.952;2023-04-29T03:28:16;5.20;;;2.80;;
67065;SDS011;53978;43.846;25.952;2023-04-29T03:30:41;4.70;;;2.50;;
67065;SDS011;53978;43.846;25.952;2023-04-29T03:33:07;4.55;;;2.53;;
67065;SDS011;53978;43.846;25.952;2023-04-29T03:35:33;4.93;;;2.80;;
67065;SDS011;53978;43.846;25.952;2023-04-29T03:37:58;4.95;;;2.47;;
67065;SDS011;53978;43.846;25.952;2023-04-29T03:40:24;4.43;;;2.78;;
67065;SDS011;53978;43.846;25.952;2023-04-29T03:42:49;5.70;;;2.38;;
67065;SDS011;53978;43.846;25.952;2023-04-29T03:45:15;5.15;;;2.47;;
67065;SDS011;53978;43.846;25.952;2023-04-29T03:47:42;5.97;;;2.90;;
67065;SDS011;53978;43.846;25.952;2023-04-29T03:50:08;4.95;;;2.30;;
67065;SDS011;53978;43.846;25.952;2023-04-29T03:52:34;9.80;;;3.35;;
67065;SDS011;53978;43.846;25.952;2023-04-29T03:55:01;7.50;;;3.08;;
67065;SDS011;53978;43.846;25.952;2023-04-29T03:57:26;6.50;;;3.63;;
67065;SDS011;53978;43.846;25.952;2023-04-29T03:59:54;5.35;;;3.90;;
67065;SDS011;53978;43.846;25.952;2023-04-29T04:02:22;5.75;;;3.85;;
67065;SDS011;53978;43.846;25.952;2023-04-29T04:04:48;7.43;;;3.80;;
67065;SDS011;53978;43.846;25.952;2023-04-29T04:07:16;9.20;;;3.97;;
67065;SDS011;53978;43.846;25.952;2023-04-29T04:09:41;7.43;;;3.58;;
67065;SDS011;53978;43.846;25.952;2023-04-29T04:12:07;7.53;;;3.70;;
67065;SDS011;53978;43.846;25.952;2023-04-29T04:14:32;7.82;;;3.95;;
67065;SDS011;53978;43.846;25.952;2023-04-29T04:17:01;5.68;;;3.70;;
67065;SDS011;53978;43.846;25.952;2023-04-29T04:19:31;4.32;;;3.53;;
67065;SDS011;53978;43.846;25.952;2023-04-29T04:21:57;4.97;;;3.65;;
67065;SDS011;53978;43.846;25.952;2023-04-29T04:24:23;6.40;;;3.45;;
67065;SDS011;53978;43.846;25.952;2023-04-29T04:26:48;5.68;;;3.75;;
67065;SDS011;53978;43.846;25.952;2023-04-29T04:29:13;5.53;;;4.05;;
67065;SDS011;53978;43.846;25.952;2023-04-29T04:31:39;6.55;;;3.88;;
67065;SDS011;53978;43.846;25.952;2023-04-29T04:34:05;8.38;;;3.92;;
67065;SDS011;53978;43.846;25.952;2023-04-29T04:36:30;5.57;;;3.60;;
67065;SDS011;53978;43.846;25.952;2023-04-29T04:38:56;8.70;;;3.90;;
67065;SDS011;53978;43.846;25.952;2023-04-29T04:41:22;5.35;;;3.60;;
67065;SDS011;53978;43.846;25.952;2023-04-29T04:43:47;8.52;;;3.70;;
67065;SDS011;53978;43.846;25.952;2023-04-29T04:46:13;6.82;;;3.65;;
67065;SDS011;53978;43.846;25.952;2023-04-29T04:48:40;5.78;;;3.58;;
67065;SDS011;53978;43.846;25.952;2023-04-29T04:51:07;9.32;;;3.88;;
67065;SDS011;53978;43.846;25.952;2023-04-29T04:53:39;8.45;;;3.67;;
67065;SDS011;53978;43.846;25.952;2023-04-29T04:56:16;6.55;;;3.53;;
67065;SDS011;53978;43.846;25.952;2023-04-29T04:58:51;3.88;;;3.00;;
67065;SDS011;53978;43.846;25.952;2023-04-29T05:01:17;4.75;;;3.10;;
67065;SDS011;53978;43.846;25.952;2023-04-29T05:03:48;4.57;;;3.15;;
67065;SDS011;53978;43.846;25.952;2023-04-29T05:06:16;4.38;;;2.60;;
67065;SDS011;53978;43.846;25.952;2023-04-29T05:08:42;5.22;;;2.80;;
67065;SDS011;53978;43.846;25.952;2023-04-29T05:11:14;4.45;;;2.90;;
67065;SDS011;53978;43.846;25.952;2023-04-29T05:13:48;7.90;;;2.92;;
67065;SDS011;53978;43.846;25.952;2023-04-29T05:16:14;9.52;;;3.25;;
67065;SDS011;53978;43.846;25.952;2023-04-29T05:18:41;3.88;;;2.83;;
67065;SDS011;53978;43.846;25.952;2023-04-29T05:21:09;4.35;;;2.65;;
67065;SDS011;53978;43.846;25.952;2023-04-29T05:23:34;8.77;;;3.05;;
67065;SDS011;53978;43.846;25.952;2023-04-29T05:28:54;3.17;;;2.30;;
67065;SDS011;53978;43.846;25.952;2023-04-29T05:31:20;4.70;;;2.50;;
67065;SDS011;53978;43.846;25.952;2023-04-29T05:33:45;5.55;;;2.90;;
67065;SDS011;53978;43.846;25.952;2023-04-29T05:36:14;6.05;;;2.75;;
67065;SDS011;53978;43.846;25.952;2023-04-29T05:38:39;4.93;;;2.70;;
67065;SDS011;53978;43.846;25.952;2023-04-29T05:41:05;3.40;;;2.60;;
67065;SDS011;53978;43.846;25.952;2023-04-29T05:46:26;3.15;;;2.45;;
67065;SDS011;53978;43.846;25.952;2023-04-29T05:48:54;3.83;;;2.45;;
67065;SDS011;53978;43.846;25.952;2023-04-29T05:52:12;4.45;;;2.38;;
67065;SDS011;53978;43.846;25.952;2023-04-29T05:54:37;2.60;;;2.30;;
67065;SDS011;53978;43.846;25.952;2023-04-29T05:57:03;4.50;;;2.40;;
67065;SDS011;53978;43.846;25.952;2023-04-29T05:59:37;4.50;;;2.30;;
67065;SDS011;53978;43.846;25.952;2023-04-29T06:02:15;3.15;;;2.00;;
67065;SDS011;53978;43.846;25.952;2023-04-29T06:04:44;3.30;;;2.13;;
67065;SDS011;53978;43.846;25.952;2023-04-29T06:07:13;2.97;;;2.13;;
67065;SDS011;53978;43.846;25.952;2023-04-29T06:09:39;2.80;;;2.33;;
67065;SDS011;53978;43.846;25.952;2023-04-29T06:12:30;2.72;;;1.85;;
67065;SDS011;53978;43.846;25.952;2023-04-29T06:15:07;2.22;;;1.98;;
67065;SDS011;53978;43.846;25.952;2023-04-29T06:17:39;3.30;;;2.05;;
67065;SDS011;53978;43.846;25.952;2023-04-29T06:20:05;2.20;;;2.00;;
67065;SDS011;53978;43.846;25.952;2023-04-29T06:22:31;3.75;;;2.10;;
67065;SDS011;53978;43.846;25.952;2023-04-29T06:24:59;7.15;;;2.13;;
67065;SDS011;53978;43.846;25.952;2023-04-29T06:27:24;3.25;;;2.17;;
67065;SDS011;53978;43.846;25.952;2023-04-29T06:29:52;3.08;;;1.88;;
67065;SDS011;53978;43.846;25.952;2023-04-29T06:32:24;3.97;;;2.33;;
67065;SDS011;53978;43.846;25.952;2023-04-29T06:34:50;2.80;;;2.00;;
67065;SDS011;53978;43.846;25.952;2023-04-29T06:37:15;4.97;;;2.22;;
67065;SDS011;53978;43.846;25.952;2023-04-29T06:39:50;3.63;;;2.10;;
67065;SDS011;53978;43.846;25.952;2023-04-29T06:42:15;3.20;;;2.05;;
67065;SDS011;53978;43.846;25.952;2023-04-29T06:44:41;5.28;;;2.22;;
67065;SDS011;53978;43.846;25.952;2023-04-29T06:47:07;3.75;;;2.28;;
67065;SDS011;53978;43.846;25.952;2023-04-29T06:49:32;4.05;;;2.38;;
67065;SDS011;53978;43.846;25.952;2023-04-29T06:51:58;3.15;;;2.20;;
67065;SDS011;53978;43.846;25.952;2023-04-29T06:54:37;4.10;;;2.25;;
67065;SDS011;53978;43.846;25.952;2023-04-29T06:57:02;4.65;;;2.05;;
67065;SDS011;53978;43.846;25.952;2023-04-29T06:59:28;3.85;;;2.30;;
67065;SDS011;53978;43.846;25.952;2023-04-29T07:01:53;5.20;;;2.40;;
67065;SDS011;53978;43.846;25.952;2023-04-29T07:04:19;3.20;;;2.08;;
67065;SDS011;53978;43.846;25.952;2023-04-29T07:06:44;6.10;;;2.40;;
67065;SDS011;53978;43.846;25.952;2023-04-29T07:09:13;4.60;;;2.28;;
67065;SDS011;53978;43.846;25.952;2023-04-29T07:11:42;2.55;;;2.22;;
67065;SDS011;53978;43.846;25.952;2023-04-29T07:14:10;2.97;;;2.00;;
67065;SDS011;53978;43.846;25.952;2023-04-29T07:16:36;2.78;;;2.08;;
67065;SDS011;53978;43.846;25.952;2023-04-29T07:19:01;3.00;;;2.00;;
67065;SDS011;53978;43.846;25.952;2023-04-29T07:21:29;2.90;;;1.90;;
67065;SDS011;53978;43.846;25.952;2023-04-29T07:23:55;4.00;;;1.80;;
67065;SDS011;53978;43.846;25.952;2023-04-29T07:26:20;5.05;;;1.95;;
67065;SDS011;53978;43.846;25.952;2023-04-29T07:28:46;4.75;;;2.28;;
67065;SDS011;53978;43.846;25.952;2023-04-29T07:31:12;2.58;;;1.77;;
67065;SDS011;53978;43.846;25.952;2023-04-29T07:33:40;3.40;;;1.90;;
67065;SDS011;53978;43.846;25.952;2023-04-29T07:36:06;5.00;;;1.90;;
67065;SDS011;53978;43.846;25.952;2023-04-29T07:38:32;2.17;;;1.63;;
67065;SDS011;53978;43.846;25.952;2023-04-29T07:40:57;2.30;;;1.75;;
67065;SDS011;53978;43.846;25.952;2023-04-29T07:43:25;2.17;;;1.92;;
67065;SDS011;53978;43.846;25.952;2023-04-29T07:45:50;2.95;;;1.98;;
67065;SDS011;53978;43.846;25.952;2023-04-29T07:48:22;3.15;;;2.20;;
67065;SDS011;53978;43.846;25.952;2023-04-29T07:50:47;6.32;;;2.38;;
67065;SDS011;53978;43.846;25.952;2023-04-29T07:53:13;3.20;;;1.85;;
67065;SDS011;53978;43.846;25.952;2023-04-29T07:55:40;3.60;;;1.85;;
67065;SDS011;53978;43.846;25.952;2023-04-29T07:58:05;6.72;;;2.15;;
67065;SDS011;53978;43.846;25.952;2023-04-29T08:00:31;2.95;;;1.70;;
67065;SDS011;53978;43.846;25.952;2023-04-29T08:02:58;3.38;;;1.90;;
67065;SDS011;53978;43.846;25.952;2023-04-29T08:05:26;1.70;;;1.50;;
67065;SDS011;53978;43.846;25.952;2023-04-29T08:07:52;4.07;;;1.65;;
67065;SDS011;53978;43.846;25.952;2023-04-29T08:10:18;3.35;;;1.67;;
67065;SDS011;53978;43.846;25.952;2023-04-29T08:12:49;3.10;;;1.65;;
67065;SDS011;53978;43.846;25.952;2023-04-29T08:15:15;10.27;;;1.92;;
67065;SDS011;53978;43.846;25.952;2023-04-29T08:17:42;3.20;;;2.05;;
67065;SDS011;53978;43.846;25.952;2023-04-29T08:20:08;3.75;;;2.00;;
67065;SDS011;53978;43.846;25.952;2023-04-29T08:22:34;4.78;;;2.15;;
67065;SDS011;53978;43.846;25.952;2023-04-29T08:24:59;3.13;;;2.10;;
67065;SDS011;53978;43.846;25.952;2023-04-29T08:27:27;5.70;;;1.73;;
67065;SDS011;53978;43.846;25.952;2023-04-29T08:29:52;87.75;;;8.23;;
67065;SDS011;53978;43.846;25.952;2023-04-29T08:32:17;12.20;;;3.65;;
67065;SDS011;53978;43.846;25.952;2023-04-29T08:34:46;2.45;;;1.92;;
67065;SDS011;53978;43.846;25.952;2023-04-29T08:37:11;3.25;;;1.88;;
67065;SDS011;53978;43.846;25.952;2023-04-29T08:39:36;30.50;;;3.55;;
67065;SDS011;53978;43.846;25.952;2023-04-29T08:42:08;2.20;;;1.85;;
67065;SDS011;53978;43.846;25.952;2023-04-29T08:44:37;5.13;;;2.10;;
67065;SDS011;53978;43.846;25.952;2023-04-29T08:47:07;118.00;;;10.00;;
67065;SDS011;53978;43.846;25.952;2023-04-29T08:49:32;3.05;;;2.33;;
67065;SDS011;53978;43.846;25.952;2023-04-29T08:51:58;7.53;;;2.28;;
67065;SDS011;53978;43.846;25.952;2023-04-29T08:54:24;7.28;;;2.20;;
67065;SDS011;53978;43.846;25.952;2023-04-29T08:56:50;4.45;;;1.83;;
67065;SDS011;53978;43.846;25.952;2023-04-29T08:59:16;16.20;;;3.00;;
67065;SDS011;53978;43.846;25.952;2023-04-29T09:01:42;3.72;;;2.03;;
67065;SDS011;53978;43.846;25.952;2023-04-29T09:06:50;5.65;;;1.98;;
67065;SDS011;53978;43.846;25.952;2023-04-29T09:09:19;4.13;;;2.20;;
67065;SDS011;53978;43.846;25.952;2023-04-29T09:11:45;7.75;;;2.40;;
67065;SDS011;53978;43.846;25.952;2023-04-29T09:14:11;4.32;;;2.30;;
67065;SDS011;53978;43.846;25.952;2023-04-29T09:16:37;3.63;;;2.05;;
67065;SDS011;53978;43.846;25.952;2023-04-29T09:19:03;2.20;;;1.90;;
67065;SDS011;53978;43.846;25.952;2023-04-29T09:21:28;2.47;;;1.80;;
67065;SDS011;53978;43.846;25.952;2023-04-29T09:23:59;10.13;;;2.08;;
67065;SDS011;53978;43.846;25.952;2023-04-29T09:26:32;2.65;;;1.95;;
67065;SDS011;53978;43.846;25.952;2023-04-29T09:29:16;3.33;;;2.17;;
67065;SDS011;53978;43.846;25.952;2023-04-29T09:31:42;5.95;;;2.50;;
67065;SDS011;53978;43.846;25.952;2023-04-29T09:34:10;2.72;;;1.88;;
67065;SDS011;53978;43.846;25.952;2023-04-29T09:36:40;6.25;;;2.67;;
67065;SDS011;53978;43.846;25.952;2023-04-29T09:39:06;3.35;;;2.20;;
67065;SDS011;53978;43.846;25.952;2023-04-29T09:41:39;8.40;;;2.60;;
67065;SDS011;53978;43.846;25.952;2023-04-29T09:44:16;2.88;;;2.08;;
67065;SDS011;53978;43.846;25.952;2023-04-29T09:47:00;4.55;;;2.55;;
67065;SDS011;53978;43.846;25.952;2023-04-29T09:49:36;3.53;;;2.20;;
67065;SDS011;53978;43.846;25.952;2023-04-29T09:52:05;4.00;;;2.83;;
67065;SDS011;53978;43.846;25.952;2023-04-29T09:54:36;3.25;;;2.63;;
67065;SDS011;53978;43.846;25.952;2023-04-29T09:57:08;5.65;;;2.33;;
67065;SDS011;53978;43.846;25.952;2023-04-29T09:59:36;3.47;;;2.45;;
67065;SDS011;53978;43.846;25.952;2023-04-29T10:02:20;3.53;;;2.45;;
67065;SDS011;53978;43.846;25.952;2023-04-29T10:04:52;4.43;;;2.17;;
67065;SDS011;53978;43.846;25.952;2023-04-29T10:07:18;4.05;;;2.08;;
67065;SDS011;53978;43.846;25.952;2023-04-29T10:09:44;3.30;;;2.53;;
67065;SDS011;53978;43.846;25.952;2023-04-29T10:12:16;6.55;;;2.28;;
67065;SDS011;53978;43.846;25.952;2023-04-29T10:14:44;9.35;;;2.65;;
67065;SDS011;53978;43.846;25.952;2023-04-29T10:17:17;5.13;;;2.28;;
67065;SDS011;53978;43.846;25.952;2023-04-29T10:22:21;3.42;;;2.20;;
67065;SDS011;53978;43.846;25.952;2023-04-29T10:24:56;4.03;;;2.13;;
67065;SDS011;53978;43.846;25.952;2023-04-29T10:27:23;2.90;;;1.92;;
67065;SDS011;53978;43.846;25.952;2023-04-29T10:29:48;2.45;;;2.00;;
67065;SDS011;53978;43.846;25.952;2023-04-29T10:32:15;6.00;;;2.28;;
67065;SDS011;53978;43.846;25.952;2023-04-29T10:34:41;6.20;;;2.03;;
67065;SDS011;53978;43.846;25.952;2023-04-29T10:37:10;3.72;;;1.92;;
67065;SDS011;53978;43.846;25.952;2023-04-29T10:39:48;3.97;;;1.80;;
67065;SDS011;53978;43.846;25.952;2023-04-29T10:42:30;3.05;;;1.80;;
67065;SDS011;53978;43.846;25.952;2023-04-29T10:45:16;2.00;;;1.80;;
67065;SDS011;53978;43.846;25.952;2023-04-29T10:50:29;3.92;;;2.08;;
67065;SDS011;53978;43.846;25.952;2023-04-29T10:52:55;3.55;;;2.08;;
67065;SDS011;53978;43.846;25.952;2023-04-29T10:55:22;3.72;;;2.50;;
67065;SDS011;53978;43.846;25.952;2023-04-29T10:57:53;5.80;;;2.65;;
67065;SDS011;53978;43.846;25.952;2023-04-29T11:00:26;3.65;;;2.60;;
67065;SDS011;53978;43.846;25.952;2023-04-29T11:02:55;2.22;;;2.00;;
67065;SDS011;53978;43.846;25.952;2023-04-29T11:05:42;3.40;;;2.25;;
67065;SDS011;53978;43.846;25.952;2023-04-29T11:10:37;2.60;;;2.30;;
67065;SDS011;53978;43.846;25.952;2023-04-29T11:15:50;4.47;;;2.60;;
67065;SDS011;53978;43.846;25.952;2023-04-29T11:19:22;3.22;;;2.33;;
67065;SDS011;53978;43.846;25.952;2023-04-29T11:21:29;3.83;;;2.60;;
67065;SDS011;53978;43.846;25.952;2023-04-29T11:23:56;4.65;;;2.85;;
67065;SDS011;53978;43.846;25.952;2023-04-29T11:26:22;3.05;;;2.58;;
67065;SDS011;53978;43.846;25.952;2023-04-29T11:28:48;3.72;;;2.30;;
67065;SDS011;53978;43.846;25.952;2023-04-29T11:31:15;3.33;;;2.28;;
67065;SDS011;53978;43.846;25.952;2023-04-29T11:33:41;3.30;;;2.35;;
67065;SDS011;53978;43.846;25.952;2023-04-29T11:36:06;4.63;;;2.88;;
67065;SDS011;53978;43.846;25.952;2023-04-29T11:38:38;2.80;;;2.15;;
67065;SDS011;53978;43.846;25.952;2023-04-29T11:41:06;4.18;;;2.60;;
67065;SDS011;53978;43.846;25.952;2023-04-29T11:43:33;4.82;;;2.42;;
67065;SDS011;53978;43.846;25.952;2023-04-29T11:45:58;2.65;;;1.95;;
67065;SDS011;53978;43.846;25.952;2023-04-29T11:48:24;4.70;;;2.03;;
67065;SDS011;53978;43.846;25.952;2023-04-29T11:50:51;5.35;;;2.10;;
67065;SDS011;53978;43.846;25.952;2023-04-29T11:53:21;4.97;;;2.13;;
67065;SDS011;53978;43.846;25.952;2023-04-29T11:55:52;3.85;;;2.28;;
67065;SDS011;53978;43.846;25.952;2023-04-29T11:58:21;4.20;;;2.20;;
67065;SDS011;53978;43.846;25.952;2023-04-29T12:00:50;3.30;;;2.05;;
67065;SDS011;53978;43.846;25.952;2023-04-29T12:03:17;3.35;;;2.40;;
67065;SDS011;53978;43.846;25.952;2023-04-29T12:08:21;5.70;;;2.42;;
67065;SDS011;53978;43.846;25.952;2023-04-29T12:10:50;2.65;;;2.20;;
67065;SDS011;53978;43.846;25.952;2023-04-29T12:13:17;3.05;;;2.10;;
67065;SDS011;53978;43.846;25.952;2023-04-29T12:15:46;4.65;;;2.20;;
67065;SDS011;53978;43.846;25.952;2023-04-29T12:18:13;5.13;;;1.95;;
67065;SDS011;53978;43.846;25.952;2023-04-29T12:20:40;5.00;;;2.30;;
67065;SDS011;53978;43.846;25.952;2023-04-29T12:23:12;2.45;;;1.95;;
67065;SDS011;53978;43.846;25.952;2023-04-29T12:25:49;2.40;;;2.00;;
67065;SDS011;53978;43.846;25.952;2023-04-29T12:28:25;3.95;;;2.40;;
67065;SDS011;53978;43.846;25.952;2023-04-29T12:30:51;3.72;;;2.28;;
67065;SDS011;53978;43.846;25.952;2023-04-29T12:33:23;4.60;;;2.03;;
67065;SDS011;53978;43.846;25.952;2023-04-29T12:35:51;3.80;;;1.95;;
67065;SDS011;53978;43.846;25.952;2023-04-29T12:38:20;2.40;;;2.10;;
67065;SDS011;53978;43.846;25.952;2023-04-29T12:40:46;3.47;;;2.15;;
67065;SDS011;53978;43.846;25.952;2023-04-29T12:43:12;4.25;;;2.30;;
67065;SDS011;53978;43.846;25.952;2023-04-29T12:45:38;2.70;;;2.30;;
67065;SDS011;53978;43.846;25.952;2023-04-29T12:48:03;4.95;;;2.13;;
67065;SDS011;53978;43.846;25.952;2023-04-29T12:50:32;2.60;;;2.10;;
67065;SDS011;53978;43.846;25.952;2023-04-29T12:52:59;3.90;;;2.25;;
67065;SDS011;53978;43.846;25.952;2023-04-29T12:55:25;3.45;;;2.00;;
67065;SDS011;53978;43.846;25.952;2023-04-29T12:57:50;2.65;;;2.10;;
67065;SDS011;53978;43.846;25.952;2023-04-29T13:00:16;2.30;;;2.10;;
67065;SDS011;53978;43.846;25.952;2023-04-29T13:02:42;2.33;;;2.05;;
67065;SDS011;53978;43.846;25.952;2023-04-29T13:05:08;2.67;;;1.85;;
67065;SDS011;53978;43.846;25.952;2023-04-29T13:07:33;2.15;;;1.95;;
67065;SDS011;53978;43.846;25.952;2023-04-29T13:09:59;4.28;;;2.15;;
67065;SDS011;53978;43.846;25.952;2023-04-29T13:12:25;3.40;;;2.15;;
67065;SDS011;53978;43.846;25.952;2023-04-29T13:14:51;2.67;;;1.83;;
67065;SDS011;53978;43.846;25.952;2023-04-29T13:17:16;2.47;;;2.00;;
67065;SDS011;53978;43.846;25.952;2023-04-29T13:19:42;2.83;;;2.15;;
67065;SDS011;53978;43.846;25.952;2023-04-29T13:22:09;3.13;;;1.83;;
67065;SDS011;53978;43.846;25.952;2023-04-29T13:24:34;3.63;;;2.13;;
67065;SDS011;53978;43.846;25.952;2023-04-29T13:27:00;6.25;;;2.20;;
67065;SDS011;53978;43.846;25.952;2023-04-29T13:29:27;4.35;;;2.30;;
67065;SDS011;53978;43.846;25.952;2023-04-29T13:31:52;4.13;;;2.08;;
67065;SDS011;53978;43.846;25.952;2023-04-29T13:34:17;2.45;;;1.83;;
67065;SDS011;53978;43.846;25.952;2023-04-29T13:36:44;6.55;;;2.30;;
67065;SDS011;53978;43.846;25.952;2023-04-29T13:39:10;3.00;;;2.08;;
67065;SDS011;53978;43.846;25.952;2023-04-29T13:41:35;3.90;;;2.28;;
67065;SDS011;53978;43.846;25.952;2023-04-29T13:44:01;2.28;;;1.98;;
67065;SDS011;53978;43.846;25.952;2023-04-29T13:46:26;4.57;;;2.15;;
67065;SDS011;53978;43.846;25.952;2023-04-29T13:48:52;2.05;;;1.80;;
67065;SDS011;53978;43.846;25.952;2023-04-29T13:51:18;3.10;;;2.38;;
67065;SDS011;53978;43.846;25.952;2023-04-29T13:53:43;2.25;;;2.05;;
67065;SDS011;53978;43.846;25.952;2023-04-29T13:56:09;4.28;;;3.13;;
67065;SDS011;53978;43.846;25.952;2023-04-29T13:58:34;3.03;;;2.25;;
67065;SDS011;53978;43.846;25.952;2023-04-29T14:01:00;8.20;;;3.83;;
67065;SDS011;53978;43.846;25.952;2023-04-29T14:03:25;2.70;;;2.35;;
67065;SDS011;53978;43.846;25.952;2023-04-29T14:05:51;3.00;;;1.95;;
67065;SDS011;53978;43.846;25.952;2023-04-29T14:08:16;3.00;;;2.30;;
67065;SDS011;53978;43.846;25.952;2023-04-29T14:10:41;2.40;;;2.10;;
67065;SDS011;53978;43.846;25.952;2023-04-29T14:13:07;4.55;;;2.20;;
67065;SDS011;53978;43.846;25.952;2023-04-29T14:15:32;3.30;;;2.03;;
67065;SDS011;53978;43.846;25.952;2023-04-29T14:17:58;5.55;;;2.50;;
67065;SDS011;53978;43.846;25.952;2023-04-29T14:20:23;8.60;;;2.15;;
67065;SDS011;53978;43.846;25.952;2023-04-29T14:22:48;2.97;;;1.95;;
67065;SDS011;53978;43.846;25.952;2023-04-29T14:25:14;3.38;;;1.90;;
67065;SDS011;53978;43.846;25.952;2023-04-29T14:27:39;3.28;;;2.20;;
67065;SDS011;53978;43.846;25.952;2023-04-29T14:30:05;4.57;;;2.40;;
67065;SDS011;53978;43.846;25.952;2023-04-29T14:32:31;4.57;;;2.40;;
67065;SDS011;53978;43.846;25.952;2023-04-29T14:34:57;2.40;;;2.10;;
67065;SDS011;53978;43.846;25.952;2023-04-29T14:37:22;3.30;;;1.83;;
67065;SDS011;53978;43.846;25.952;2023-04-29T14:39:48;2.53;;;2.10;;
67065;SDS011;53978;43.846;25.952;2023-04-29T14:42:13;2.85;;;2.17;;
67065;SDS011;53978;43.846;25.952;2023-04-29T14:44:39;2.78;;;2.30;;
67065;SDS011;53978;43.846;25.952;2023-04-29T14:47:04;6.10;;;2.17;;
67065;SDS011;53978;43.846;25.952;2023-04-29T14:49:32;4.03;;;2.40;;
67065;SDS011;53978;43.846;25.952;2023-04-29T14:52:00;3.15;;;2.13;;
67065;SDS011;53978;43.846;25.952;2023-04-29T14:54:26;6.65;;;2.22;;
67065;SDS011;53978;43.846;25.952;2023-04-29T14:56:56;4.93;;;2.45;;
67065;SDS011;53978;43.846;25.952;2023-04-29T14:59:22;7.28;;;2.25;;
67065;SDS011;53978;43.846;25.952;2023-04-29T15:01:49;3.17;;;2.33;;
67065;SDS011;53978;43.846;25.952;2023-04-29T15:04:15;4.72;;;2.25;;
67065;SDS011;53978;43.846;25.952;2023-04-29T15:06:40;4.70;;;2.85;;
67065;SDS011;53978;43.846;25.952;2023-04-29T15:09:06;3.83;;;2.45;;
67065;SDS011;53978;43.846;25.952;2023-04-29T15:11:34;3.20;;;2.45;;
67065;SDS011;53978;43.846;25.952;2023-04-29T15:14:01;3.50;;;2.42;;
67065;SDS011;53978;43.846;25.952;2023-04-29T15:16:28;5.03;;;3.10;;
67065;SDS011;53978;43.846;25.952;2023-04-29T15:18:56;4.30;;;2.40;;
67065;SDS011;53978;43.846;25.952;2023-04-29T15:21:21;3.60;;;2.05;;
67065;SDS011;53978;43.846;25.952;2023-04-29T15:23:47;3.67;;;2.55;;
67065;SDS011;53978;43.846;25.952;2023-04-29T15:26:15;5.47;;;3.30;;
67065;SDS011;53978;43.846;25.952;2023-04-29T15:28:41;4.80;;;2.90;;
67065;SDS011;53978;43.846;25.952;2023-04-29T15:31:09;5.90;;;2.70;;
67065;SDS011;53978;43.846;25.952;2023-04-29T15:33:35;4.10;;;2.55;;
67065;SDS011;53978;43.846;25.952;2023-04-29T15:36:00;4.72;;;2.42;;
67065;SDS011;53978;43.846;25.952;2023-04-29T15:38:27;7.05;;;3.40;;
67065;SDS011;53978;43.846;25.952;2023-04-29T15:40:53;3.47;;;2.33;;
67065;SDS011;53978;43.846;25.952;2023-04-29T15:43:27;8.35;;;2.83;;
67065;SDS011;53978;43.846;25.952;2023-04-29T15:45:53;8.40;;;2.85;;
67065;SDS011;53978;43.846;25.952;2023-04-29T15:48:18;3.85;;;2.80;;
67065;SDS011;53978;43.846;25.952;2023-04-29T15:50:44;7.45;;;2.67;;
67065;SDS011;53978;43.846;25.952;2023-04-29T15:53:10;8.70;;;2.50;;
67065;SDS011;53978;43.846;25.952;2023-04-29T15:55:36;6.20;;;2.35;;
67065;SDS011;53978;43.846;25.952;2023-04-29T15:58:04;4.80;;;2.22;;
67065;SDS011;53978;43.846;25.952;2023-04-29T16:00:29;2.55;;;2.35;;
67065;SDS011;53978;43.846;25.952;2023-04-29T16:02:55;3.70;;;2.58;;
67065;SDS011;53978;43.846;25.952;2023-04-29T16:05:23;6.70;;;2.63;;
67065;SDS011;53978;43.846;25.952;2023-04-29T16:10:41;6.88;;;2.20;;
67065;SDS011;53978;43.846;25.952;2023-04-29T16:13:30;5.25;;;2.45;;
67065;SDS011;53978;43.846;25.952;2023-04-29T16:16:01;5.10;;;2.50;;
67065;SDS011;53978;43.846;25.952;2023-04-29T16:18:26;4.65;;;2.47;;
67065;SDS011;53978;43.846;25.952;2023-04-29T16:20:52;3.83;;;2.60;;
67065;SDS011;53978;43.846;25.952;2023-04-29T16:23:17;6.25;;;2.70;;
67065;SDS011;53978;43.846;25.952;2023-04-29T16:25:45;4.88;;;2.60;;
67065;SDS011;53978;43.846;25.952;2023-04-29T16:28:20;5.65;;;2.53;;
67065;SDS011;53978;43.846;25.952;2023-04-29T16:30:48;5.13;;;2.83;;